Latest Weather Observations for Hopetoun Airport

IDV60801

Issued at 3:32 pm EDT Saturday 17 November 2018 (issued every 10 minutes, with the page automatically refreshed every 10 minutes)

About weather observations | Map of weather stations | Latest weather observations for VIC | Other Formats
Station Details ID: 077010 Name: HOPETOUN AIRPORT Lat: -35.72 Lon: 142.36 Height: 77.3 m
Data from the previous 72 hours. | See also: Recent months at Hopetoun Airport
Date/Time
EDT
Temp
°C
App
Temp
°C
Dew
Point
°C
Rel
Hum
%
Delta-T
°C
Wind Press
QNH
hPa
Press
MSL
hPa
Rain since
9am
mm
Dir  Spd
km/h
Gust
km/h
Spd
kts
Gust
kts
17/03:30pm 26.7 20.4 -4.0 13 13.3 SSE 20 33 11 18 1019.6 1019.4 0.0
17/03:00pm 26.1 19.0 -4.4 13 13.1 SSE 24 41 13 22 1020.0 1019.8 0.0
17/02:30pm 25.8 19.6 -2.8 15 12.6 ESE 20 30 11 16 1020.4 1020.2 0.0
17/02:00pm 25.6 19.4 -2.9 15 12.5 SSE 20 32 11 17 1020.9 1020.7 0.0
17/01:30pm 24.6 18.7 -2.0 17 11.8 SSE 19 32 10 17 1021.4 1021.2 0.0
17/01:00pm 22.9 17.3 -2.6 18 11.0 SSE 17 33 9 18 1021.7 1021.5 0.0
17/12:30pm 22.8 17.5 -0.6 21 10.5 SE 17 26 9 14 1022.1 1021.9 0.0
17/12:00pm 21.4 16.3 0.6 25 9.4 SSE 17 26 9 14 1022.4 1022.2 0.0
17/11:30am 20.7 15.1 1.1 27 8.9 SE 20 33 11 18 1022.7 1022.5 0.0
17/11:00am 18.5 13.5 1.1 31 7.8 SE 17 26 9 14 1022.9 1022.7 0.0
17/10:30am 17.2 12.3 2.0 36 6.9 SE 17 26 9 14 1022.8 1022.6 0.0
17/10:00am 16.1 11.0 2.9 41 6.0 SE 19 26 10 14 1023.0 1022.8 0.0
17/09:30am 14.4 9.2 3.5 48 5.0 SE 20 30 11 16 1023.2 1023.0 0.0
17/09:00am 13.7 8.3 4.3 53 4.3 SE 22 33 12 18 1023.2 1023.0 0.0
17/08:30am 12.4 7.6 4.4 58 3.6 SSE 19 24 10 13 1022.9 1022.7 0.0
17/08:00am 11.3 7.2 4.5 63 3.1 SSE 15 20 8 11 1022.8 1022.6 0.0
17/07:30am 9.8 5.3 4.2 68 2.5 S 17 20 9 11 1022.7 1022.5 0.0
17/07:00am 8.3 5.6 3.6 72 2.0 S 7 13 4 7 1022.4 1022.2 0.0
17/06:30am 7.0 4.1 2.7 74 1.8 S 7 9 4 5 1022.0 1021.8 0.0
17/06:00am 8.3 5.6 3.6 72 2.0 SSE 7 11 4 6 1021.7 1021.5 0.0
17/05:30am 8.7 5.2 3.7 71 2.2 SSE 11 13 6 7 1021.4 1021.2 0.0
17/05:00am 9.4 5.6 4.0 69 2.4 SSE 13 20 7 11 1021.2 1021.0 0.0
17/04:30am 9.9 6.2 4.3 68 2.5 SSE 13 17 7 9 1021.1 1020.9 0.0
17/04:00am 10.4 6.3 4.3 66 2.7 SSE 15 20 8 11 1020.9 1020.7 0.0
17/03:30am 11.1 6.7 4.6 64 2.9 SSE 17 24 9 13 1020.8 1020.6 0.0
17/03:00am 11.6 6.8 4.6 62 3.2 SSE 19 30 10 16 1020.8 1020.6 0.0
17/02:30am 12.0 7.2 4.5 60 3.4 SSE 19 26 10 14 1020.7 1020.5 0.0
17/02:00am 12.5 7.5 4.5 58 3.6 SSE 20 30 11 16 1020.6 1020.4 0.0
17/01:30am 13.1 7.7 4.3 55 4.0 SSE 22 33 12 18 1020.8 1020.6 0.0
17/01:00am 13.8 8.3 4.1 52 4.4 SSE 22 32 12 17 1020.9 1020.7 0.0
17/12:30am 14.6 8.3 4.0 49 4.9 SSE 26 39 14 21 1021.0 1020.8 0.0
17/12:00am 15.6 9.3 3.7 45 5.5 SSE 26 37 14 20 1020.8 1020.6 0.0
 
Date/Time
EDT
Temp
°C
App
Temp
°C
Dew
Point
°C
Rel
Hum
%
Delta-T
°C
Wind Press
QNH
hPa
Press
MSL
hPa
Rain since
9am
mm
Dir  Spd
km/h
Gust
km/h
Spd
kts
Gust
kts
16/11:30pm 17.1 10.4 3.8 41 6.2 SSE 28 37 15 20 1020.6 1020.4 0.0
16/11:00pm 18.0 12.7 3.1 37 6.9 SSE 20 28 11 15 1020.2 1020.0 0.0
16/10:30pm 18.9 13.7 2.7 34 7.5 SSE 19 26 10 14 1020.0 1019.8 0.0
16/10:00pm 19.2 14.5 1.2 30 8.1 S 15 20 8 11 1019.7 1019.5 0.0
16/09:30pm 20.2 15.4 0.1 26 8.9 S 15 20 8 11 1019.1 1018.9 0.0
16/09:00pm 20.8 16.4 0.6 26 9.1 SSW 13 19 7 10 1018.6 1018.4 0.0
16/08:30pm 22.2 16.7 0.7 24 9.8 SSW 19 26 10 14 1018.2 1018.0 0.0
16/08:00pm 23.7 18.7 -1.3 19 11.1 SW 15 24 8 13 1017.8 1017.6 0.0
16/07:30pm 25.1 18.7 -1.6 17 12.0 SW 22 28 12 15 1017.5 1017.3 0.0
16/07:00pm 25.6 18.8 -2.1 16 12.3 SSW 24 33 13 18 1017.2 1016.9 0.0
16/06:30pm 26.3 19.9 -1.5 16 12.6 WSW 22 33 12 18 1017.0 1016.7 0.0
16/06:00pm 26.3 21.3 -1.5 16 12.6 SW 15 24 8 13 1017.0 1016.7 0.0
16/05:30pm 27.0 21.8 -0.1 17 12.7 WSW 17 32 9 17 1017.1 1016.8 0.0
16/05:00pm 27.0 21.4 -0.1 17 12.7 SW 19 30 10 16 1017.2 1016.9 0.0
16/04:30pm 27.0 21.3 0.7 18 12.5 WSW 20 41 11 22 1017.4 1017.2 0.0
16/04:00pm 26.2 21.0 0.0 18 12.2 S 17 32 9 17 1017.6 1017.4 0.0
16/03:30pm 26.0 20.9 0.6 19 11.9 WSW 17 32 9 17 1017.8 1017.6 0.0
16/03:00pm 26.7 21.9 0.4 18 12.4 WSW 15 26 8 14 1018.3 1018.1 0.0
16/02:30pm 25.9 20.9 1.2 20 11.7 SW 17 32 9 17 1018.8 1018.6 0.0
16/02:00pm 25.5 19.9 0.9 20 11.6 WSW 20 30 11 16 1019.3 1019.1 0.0
16/01:30pm 24.6 18.7 1.5 22 10.9 WSW 22 33 12 18 1019.7 1019.5 0.0
16/01:00pm 24.8 19.9 2.3 23 10.8 WSW 17 28 9 15 1020.0 1019.8 0.0
16/12:30pm 23.2 19.2 2.7 26 9.8 W 13 24 7 13 1020.3 1020.1 0.0
16/12:00pm 23.0 19.9 3.5 28 9.4 SW 9 17 5 9 1020.7 1020.5 0.0
16/11:30am 21.0 18.3 2.8 30 8.6 ESE 6 13 3 7 1021.0 1020.8 0.0
16/11:00am 20.7 18.1 3.4 32 8.2 NE 6 13 3 7 1021.3 1021.1 0.0
16/10:30am 19.2 16.9 2.6 33 7.7 ENE 4 9 2 5 1021.4 1021.2 0.0
16/10:00am 17.7 15.0 2.8 37 6.8 ENE 6 13 3 7 1021.5 1021.3 0.0
16/09:30am 17.3 14.1 3.2 39 6.5 ESE 9 15 5 8 1021.6 1021.4 0.0
16/09:00am 15.6 12.6 4.0 46 5.4 ESE 9 13 5 7 1021.6 1021.4 0.0
16/08:30am 14.3 10.9 4.0 50 4.7 ESE 11 15 6 8 1021.5 1021.3 0.0
16/08:00am 12.1 8.9 3.3 55 3.9 ESE 9 13 5 7 1021.4 1021.2 0.0
16/07:30am 10.8 7.3 3.4 60 3.3 SE 11 17 6 9 1021.2 1021.0 0.0
16/07:00am 9.2 4.9 3.2 66 2.6 SE 15 19 8 10 1021.1 1020.9 0.0
16/06:30am 8.2 3.8 2.7 68 2.3 SE 15 19 8 10 1021.0 1020.8 0.0
16/06:00am 8.1 4.4 2.4 67 2.4 SE 11 15 6 8 1020.7 1020.5 0.0
16/05:30am 8.2 4.5 2.4 67 2.4 SE 11 15 6 8 1020.6 1020.4 0.0
16/05:00am 8.6 5.3 2.4 65 2.6 SE 9 13 5 7 1020.6 1020.4 0.0
16/04:30am 9.2 5.1 2.5 63 2.8 SE 13 15 7 8 1020.5 1020.3 0.0
16/04:00am 9.4 5.8 2.7 63 2.9 SE 11 17 6 9 1020.6 1020.4 0.0
16/03:30am 9.6 5.9 2.2 60 3.1 ESE 11 15 6 8 1020.6 1020.4 0.0
16/03:00am 10.3 6.6 2.2 57 3.4 ESE 11 15 6 8 1020.9 1020.7 0.0
16/02:30am 11.2 6.7 2.2 54 3.9 SE 15 19 8 10 1021.0 1020.8 0.0
16/02:00am 12.0 7.8 1.9 50 4.3 SE 13 17 7 9 1021.4 1021.2 0.0
16/01:30am 13.0 8.5 2.0 47 4.8 SE 15 20 8 11 1021.6 1021.4 0.0
16/01:00am 14.0 8.7 2.0 44 5.2 SE 19 24 10 13 1021.7 1021.5 0.0
16/12:30am 14.4 9.5 1.7 42 5.6 SE 17 22 9 12 1021.8 1021.6 0.0
16/12:00am 15.2 9.8 1.4 39 6.0 SSE 19 24 10 13 1022.0 1021.8 0.0
 
Date/Time
EDT
Temp
°C
App
Temp
°C
Dew
Point
°C
Rel
Hum
%
Delta-T
°C
Wind Press
QNH
hPa
Press
MSL
hPa
Rain since
9am
mm
Dir  Spd
km/h
Gust
km/h
Spd
kts
Gust
kts
15/11:30pm 15.6 11.0 1.7 39 6.1 SSE 15 19 8 10 1022.2 1022.0 0.0
15/11:00pm 16.3 12.2 2.0 38 6.4 SSE 13 17 7 9 1022.2 1022.0 0.0
15/10:30pm 17.4 12.5 1.8 35 7.0 SSE 17 24 9 13 1022.0 1021.8 0.0
15/10:00pm 18.2 13.6 1.7 33 7.4 SSE 15 20 8 11 1021.9 1021.7 0.0
15/09:30pm 18.8 14.2 1.8 32 7.7 SSE 15 20 8 11 1021.7 1021.5 0.0
15/09:00pm 19.7 15.4 1.2 29 8.3 SSE 13 17 7 9 1021.5 1021.3 0.0
15/08:30pm 20.8 16.7 -0.5 24 9.4 S 11 15 6 8 1021.3 1021.1 0.0
15/08:00pm 21.6 16.7 -0.4 23 9.8 SSE 15 20 8 11 1020.9 1020.7 0.0
15/07:30pm 22.6 17.7 -0.2 22 10.3 SSE 15 20 8 11 1020.7 1020.5 0.0
15/07:00pm 23.1 18.3 0.2 22 10.4 S 15 24 8 13 1020.5 1020.3 0.0
15/06:30pm 23.4 18.6 0.5 22 10.5 S 15 28 8 15 1020.4 1020.2 0.0
15/06:00pm 23.9 18.7 0.3 21 10.8 S 17 32 9 17 1020.4 1020.2 0.0
15/05:30pm 23.0 18.1 -0.5 21 10.6 S 15 24 8 13 1020.4 1020.2 0.0
15/05:00pm 24.1 19.1 -0.9 19 11.2 S 15 28 8 15 1020.4 1020.2 0.0
15/04:30pm 23.8 19.2 -1.2 19 11.2 S 13 26 7 14 1020.7 1020.5 0.0
15/04:00pm 22.9 17.2 -0.6 21 10.5 S 19 30 10 16 1020.9 1020.7 0.0
15/03:30pm 23.2 17.5 0.3 22 10.5 SSW 20 35 11 19 1021.3 1021.1 0.0
15/03:00pm 22.6 18.2 0.4 23 10.1 S 13 24 7 13 1021.6 1021.4 0.0
15/02:30pm 22.3 17.1 0.2 23 10.0 S 17 32 9 17 1022.0 1021.8 0.0
15/02:00pm 21.5 16.5 1.2 26 9.3 SSE 17 24 9 13 1022.5 1022.3 0.0
15/01:30pm 21.0 15.8 2.3 29 8.7 SSE 19 28 10 15 1022.7 1022.5 0.0
15/01:00pm 20.7 15.5 3.4 32 8.2 S 20 35 11 19 1022.9 1022.7 0.0
15/12:30pm 19.6 15.5 4.1 36 7.4 S 15 24 8 13 1023.0 1022.8 0.0
15/12:00pm 20.1 16.5 5.0 37 7.4 SSE 13 22 7 12 1023.4 1023.2 0.0
15/11:30am 18.6 14.8 5.8 43 6.3 S 15 26 8 14 1023.7 1023.5 0.0
15/11:00am 18.7 14.5 5.9 43 6.3 S 17 28 9 15 1023.8 1023.6 0.0
15/10:30am 17.7 13.2 5.9 46 5.8 SSE 19 28 10 15 1023.7 1023.5 0.0
15/10:00am 17.5 12.0 6.1 47 5.6 SSE 24 33 13 18 1023.6 1023.4 0.0
15/09:30am 16.6 11.7 6.7 52 4.9 SSE 22 37 12 20 1024.0 1023.8 0.0
15/09:00am 15.6 9.9 6.9 56 4.3 SSE 26 35 14 19 1023.6 1023.4 0.0
15/08:30am 14.7 9.1 7.0 60 3.8 SSE 26 35 14 19 1023.2 1023.0 0.0
15/08:00am 13.7 8.2 7.5 66 3.0 SSE 26 37 14 20 1022.8 1022.6 0.0
15/07:30am 12.9 8.6 7.8 71 2.5 SSE 20 28 11 15 1022.5 1022.3 0.0
15/07:00am 12.2 9.4 8.7 79 1.7 S 13 19 7 10 1022.1 1021.9 0.0
15/06:30am 11.5 9.2 8.9 84 1.3 SSW 11 17 6 9 1021.8 1021.6 0.0
15/06:00am 9.8 7.6 7.7 87 1.0 SSW 9 11 5 6 1021.2 1021.0 0.0
15/05:30am 9.9 7.2 7.5 85 1.1 SSW 11 15 6 8 1020.7 1020.5 0.0
15/05:00am 10.1 6.7 7.5 84 1.2 SSW 15 20 8 11 1020.3 1020.1 0.0
15/04:30am 9.7 6.2 7.3 85 1.1 SSW 15 19 8 10 1020.3 1020.1 0.0
15/04:00am 10.0 6.5 7.3 83 1.3 SSW 15 20 8 11 1020.2 1020.0 0.0
15/03:30am 10.6 6.4 7.3 80 1.6 SW 19 24 10 13 1020.2 1020.0 0.0
15/03:00am 11.0 7.2 7.5 79 1.7 SW 17 20 9 11 1020.0 1019.8 0.0
15/02:30am 11.4 7.6 7.7 78 1.8 SW 17 20 9 11 1020.1 1019.9 0.0
15/02:00am 11.6 8.2 7.7 77 1.9 SSW 15 19 8 10 1020.3 1020.1 0.0
15/01:30am 12.3 8.6 8.0 75 2.1 SSW 17 22 9 12 1020.3 1020.1 0.0
15/01:00am 12.9 9.3 8.2 73 2.3 SSW 17 22 9 12 1020.5 1020.3 0.0
15/12:30am 13.3 9.2 8.0 70 2.6 SW 19 24 10 13 1020.4 1020.2 0.0
15/12:00am 13.9 9.6 7.9 67 3.0 SW 20 28 11 15 1020.3 1020.1 0.0
 
Date/Time
EDT
Temp
°C
App
Temp
°C
Dew
Point
°C
Rel
Hum
%
Delta-T
°C
Wind Press
QNH
hPa
Press
MSL
hPa
Rain since
9am
mm
Dir  Spd
km/h
Gust
km/h
Spd
kts
Gust
kts
14/11:30pm 14.6 9.6 8.1 65 3.3 SW 24 33 13 18 1020.4 1020.2 0.0
14/11:00pm 15.1 10.6 8.6 65 3.3 SW 22 30 12 16 1020.1 1019.9 0.0
14/10:30pm 15.9 8.7 9.1 64 3.5 SW 37 44 20 24 1019.8 1019.6 0.0
14/10:00pm 17.1 10.7 9.5 61 4.0 SW 33 43 18 23 1019.1 1018.9 0.0
14/09:30pm 18.7 12.4 9.8 56 4.7 SW 33 46 18 25 1018.5 1018.3 0.0
14/09:26pm 19.2 13.2 8.8 51 5.4 SW 30 46 16 25 1018.3 1018.1 0.0
14/09:00pm 19.7 15.8 7.1 44 6.4 SW 17 24 9 13 1017.7 1017.5 0.0
14/08:30pm 20.6 15.7 6.9 41 7.0 SW 22 30 12 16 1017.4 1017.2 0.0
14/08:00pm 21.6 15.7 7.4 40 7.3 SW 28 33 15 18 1017.0 1016.7 0.0
14/07:30pm 22.7 17.9 7.3 37 8.0 WSW 22 33 12 18 1016.5 1016.2 0.0
14/07:00pm 23.6 17.7 7.7 36 8.4 SW 28 35 15 19 1015.9 1015.7 0.0
14/06:39pm 24.0 18.2 8.0 36 8.5 SW 28 46 15 25 1015.6 1015.4 0.0
14/06:30pm 24.1 18.6 7.7 35 8.7 SW 26 41 14 22 1015.4 1015.2 0.0
14/06:00pm 24.8 18.9 7.4 33 9.2 WSW 28 39 15 21 1015.3 1015.1 0.0
14/05:30pm 25.1 18.8 7.3 32 9.4 SW 30 39 16 21 1015.1 1014.9 0.0
14/05:00pm 25.9 20.1 8.0 32 9.6 SW 28 37 15 20 1014.9 1014.7 0.0
14/04:30pm 26.2 19.6 7.7 31 9.9 WSW 32 44 17 24 1014.7 1014.5 0.0
14/04:00pm 25.1 20.0 7.7 33 9.2 SW 24 43 13 23 1014.5 1014.3 0.0

Other Formats:

Comma delimited format used in spreadsheet applications
http://www.bom.gov.au/fwo/IDV60801/IDV60801.94838.axf

JavaScript Object Notation format (JSON) in row-major order
http://www.bom.gov.au/fwo/IDV60801/IDV60801.94838.json